University Place, Nebraska
Current Conditions -  °F | °C
As of 5:54 AM on Friday 28 Nov 2014 (Local Time) from KLNK Reporting Station
Clear Clear  
Wind Chill: 25°   Ceiling: Unl
Heat Index: 25°   Visibility: 10mi
Dew Point: 19°   Wind: 3mph
Humidity: 78%   Direction: 180°S
Pressure: 29.93"   Gusts: NA
Location:  40.8517°N, 96.6591°W
Report Text: KLNK 281154Z 18003KT 10SM CLR M04/M07 A2993 RMK AO2 SLP149 T10391072 11017 21039 56024
Loading
Personal Weather Stations






























Interactive Weather Map New forecast layout! Learn more

10-Day Weather Forecast

Advertisements
Track Severe Weather on mobile